createdAt,value
2019-02-03T00:01:11.335Z,90.37
2019-02-03T00:03:40.841Z,91.27
2019-02-03T00:06:10.199Z,99.97
2019-02-03T00:08:39.528Z,92.07
2019-02-03T00:11:08.855Z,85.40
2019-02-03T00:13:38.347Z,81.17
2019-02-03T00:16:08.368Z,86.33
2019-02-03T00:18:37.622Z,85.23
2019-02-03T00:21:06.874Z,94.30
2019-02-03T00:23:36.143Z,89.93
2019-02-03T00:26:06.032Z,93.63
2019-02-03T00:28:35.194Z,84.60
2019-02-03T00:31:05.107Z,89.07
2019-02-03T00:33:34.305Z,88.20
2019-02-03T00:36:03.640Z,86.17
2019-02-03T00:38:32.950Z,87.67
2019-02-03T00:41:02.207Z,86.33
2019-02-03T00:43:31.553Z,84.80
2019-02-03T00:46:00.810Z,87.67
2019-02-03T00:48:29.995Z,89.93
2019-02-03T00:50:59.309Z,90.47
2019-02-03T00:53:28.556Z,88.90
2019-02-03T00:55:57.840Z,94.73
2019-02-03T00:58:27.015Z,91.77
2019-02-03T01:00:56.250Z,88.93
2019-02-03T01:03:26.465Z,95.50
2019-02-03T01:05:56.398Z,92.17
2019-02-03T01:08:25.750Z,92.93
2019-02-03T01:10:55.074Z,101.23
2019-02-03T01:13:24.465Z,96.43
2019-02-03T01:15:53.610Z,90.40
2019-02-03T01:18:22.878Z,97.53
2019-02-03T01:20:52.118Z,86.20
2019-02-03T01:23:21.357Z,88.17
2019-02-03T01:25:50.679Z,86.63
2019-02-03T01:28:19.996Z,90.40
2019-02-03T01:30:49.259Z,92.40
2019-02-03T01:33:20.789Z,82.57
2019-02-03T01:35:50.045Z,90.77
2019-02-03T01:38:19.751Z,87.17
2019-02-03T01:40:49.011Z,86.47
2019-02-03T01:43:18.247Z,88.27
2019-02-03T01:45:47.558Z,88.50
2019-02-03T01:48:16.736Z,86.60
2019-02-03T01:50:45.937Z,86.73
2019-02-03T01:53:15.173Z,86.47
2019-02-03T01:55:44.425Z,84.90
2019-02-03T01:58:13.668Z,87.37
2019-02-03T02:00:43.408Z,81.43
2019-02-03T02:03:12.560Z,82.43
2019-02-03T02:05:41.803Z,84.70
2019-02-03T02:08:10.963Z,80.73
2019-02-03T02:10:40.231Z,77.90
2019-02-03T02:13:09.777Z,73.47
2019-02-03T02:15:39.035Z,71.93
2019-02-03T02:18:08.231Z,74.80
2019-02-03T02:20:37.675Z,72.77
2019-02-03T02:23:06.918Z,78.43
2019-02-03T02:25:36.121Z,69.53
2019-02-03T02:28:05.780Z,76.70
2019-02-03T02:30:34.931Z,71.57
2019-02-03T02:33:04.294Z,67.00
2019-02-03T02:35:33.475Z,67.57
2019-02-03T02:38:07.215Z,70.90
2019-02-03T02:40:33.843Z,71.07
2019-02-03T02:43:03.091Z,74.20
2019-02-03T02:45:32.255Z,70.43
2019-02-03T02:48:01.495Z,68.93
2019-02-03T02:50:33.750Z,74.70
2019-02-03T02:53:03.293Z,72.27
2019-02-03T02:55:33.177Z,68.90
2019-02-03T02:58:03.338Z,65.07
2019-02-03T03:00:32.608Z,63.87
2019-02-03T03:03:01.845Z,63.07
2019-02-03T03:05:31.019Z,62.73
2019-02-03T03:08:00.225Z,65.77
2019-02-03T03:10:29.527Z,68.23
2019-02-03T03:12:58.766Z,59.27
2019-02-03T03:15:27.995Z,59.97
2019-02-03T03:17:57.268Z,72.43
2019-02-03T03:20:26.600Z,66.83
2019-02-03T03:22:56.443Z,67.07
2019-02-03T03:25:25.749Z,64.33
2019-02-03T03:27:55.118Z,63.83
2019-02-03T03:30:26.739Z,62.90
2019-02-03T03:32:56.832Z,59.40
2019-02-03T03:35:27.106Z,64.00
2019-02-03T03:37:56.661Z,60.43
2019-02-03T03:40:28.806Z,61.77
2019-02-03T03:42:58.712Z,62.37
2019-02-03T03:45:28.501Z,65.17
2019-02-03T03:47:58.040Z,64.23
2019-02-03T03:50:27.325Z,60.77
2019-02-03T03:52:56.596Z,60.10
2019-02-03T03:55:26.067Z,63.40
2019-02-03T03:57:55.324Z,62.77
2019-02-03T04:00:26.270Z,59.83
2019-02-03T04:02:55.642Z,65.30
2019-02-03T04:05:25.338Z,61.30
2019-02-03T04:07:54.515Z,59.60
2019-02-03T04:10:24.633Z,54.00
2019-02-03T04:12:53.875Z,56.03
2019-02-03T04:15:23.823Z,60.13
2019-02-03T04:17:52.989Z,53.40
2019-02-03T04:20:30.143Z,58.60
2019-02-03T04:22:59.460Z,56.53
2019-02-03T04:25:28.695Z,55.17
2019-02-03T04:27:58.557Z,53.07
2019-02-03T04:30:28.341Z,58.40
2019-02-03T04:32:57.515Z,52.37
2019-02-03T04:35:26.757Z,50.00
2019-02-03T04:37:56.035Z,51.13
2019-02-03T04:40:25.200Z,54.03
2019-02-03T04:42:54.388Z,50.47
2019-02-03T04:45:23.619Z,50.50
2019-02-03T04:47:52.896Z,54.80
2019-02-03T04:50:22.856Z,54.13
2019-02-03T04:52:52.111Z,55.40
2019-02-03T04:55:22.453Z,49.10
2019-02-03T04:57:51.782Z,55.23
2019-02-03T05:00:22.928Z,52.83
2019-02-03T05:02:52.577Z,53.43
2019-02-03T05:05:22.145Z,47.73
2019-02-03T05:07:51.390Z,49.87
2019-02-03T05:10:21.028Z,47.40
2019-02-03T05:12:50.375Z,49.53
2019-02-03T05:15:21.652Z,46.77
2019-02-03T05:17:51.168Z,46.50
2019-02-03T05:20:26.291Z,43.67
2019-02-03T05:22:55.912Z,41.57
2019-02-03T05:25:25.470Z,41.93
2019-02-03T05:27:54.724Z,42.60
2019-02-03T05:30:26.571Z,41.97
2019-02-03T05:32:55.818Z,34.47
2019-02-03T05:35:25.078Z,35.17
2019-02-03T05:37:54.315Z,33.10
2019-02-03T05:40:24.021Z,30.20
2019-02-03T05:42:53.410Z,34.73
2019-02-03T05:45:23.198Z,29.87
2019-02-03T05:47:52.871Z,30.33
2019-02-03T05:50:22.148Z,28.33
2019-02-03T05:52:51.370Z,30.80
2019-02-03T05:55:21.061Z,29.43
2019-02-03T05:57:50.287Z,30.47
2019-02-03T06:00:34.878Z,31.37
2019-02-03T06:03:04.713Z,30.03
2019-02-03T06:05:33.962Z,29.03
2019-02-03T06:08:03.203Z,29.03
2019-02-03T06:10:32.359Z,29.27
2019-02-03T06:13:02.038Z,25.53
2019-02-03T06:15:31.225Z,26.73
2019-02-03T06:18:00.384Z,25.83
2019-02-03T06:20:29.637Z,25.30
2019-02-03T06:22:58.824Z,22.97
2019-02-03T06:25:28.065Z,22.67
2019-02-03T06:27:57.241Z,20.07
2019-02-03T06:31:10.545Z,21.53
2019-02-03T06:33:39.850Z,23.47
2019-02-03T06:36:10.849Z,18.30
2019-02-03T06:38:40.580Z,22.30
2019-02-03T06:41:09.748Z,22.80
2019-02-03T06:43:38.988Z,20.60
2019-02-03T06:46:34.137Z,21.00
2019-02-03T06:49:22.363Z,21.17
2019-02-03T06:51:51.632Z,19.47
2019-02-03T06:54:21.035Z,16.93
2019-02-03T06:56:52.419Z,17.63
2019-02-03T06:59:21.709Z,14.63
2019-02-03T07:01:51.631Z,16.27
2019-02-03T07:04:21.418Z,15.47
2019-02-03T07:06:50.657Z,16.43
2019-02-03T07:09:19.909Z,14.60
2019-02-03T07:11:49.116Z,14.63
2019-02-03T07:14:18.299Z,14.37
2019-02-03T07:16:47.460Z,13.97
2019-02-03T07:19:16.647Z,14.47
2019-02-03T07:21:45.927Z,15.07
2019-02-03T07:24:15.122Z,13.03
2019-02-03T07:26:44.346Z,13.60
2019-02-03T07:29:13.555Z,12.67
2019-02-03T07:31:43.412Z,12.87
2019-02-03T07:34:14.500Z,14.37
2019-02-03T07:36:43.700Z,18.83
2019-02-03T07:39:13.199Z,15.97
2019-02-03T07:41:42.372Z,15.13
2019-02-03T07:44:11.514Z,14.80
2019-02-03T07:46:40.695Z,14.87
2019-02-03T07:49:09.973Z,16.07
2019-02-03T07:51:39.183Z,29.80
2019-02-03T07:54:08.912Z,32.57
2019-02-03T07:56:38.510Z,20.13
2019-02-03T07:59:08.463Z,12.97
2019-02-03T08:01:37.627Z,26.00
2019-02-03T08:04:06.934Z,16.00
2019-02-03T08:06:36.186Z,13.67
2019-02-03T08:09:09.070Z,15.10
2019-02-03T08:11:38.409Z,14.57
2019-02-03T08:14:07.975Z,13.33
2019-02-03T08:16:37.236Z,12.47
2019-02-03T08:19:06.492Z,13.07
2019-02-03T08:21:35.772Z,12.23
2019-02-03T08:24:05.245Z,12.00
2019-02-03T08:26:34.488Z,10.73
2019-02-03T08:29:03.758Z,12.93
2019-02-03T08:31:33.143Z,11.23
2019-02-03T08:34:02.390Z,13.63
2019-02-03T08:36:31.809Z,13.37
2019-02-03T08:39:01.345Z,18.43
2019-02-03T08:41:31.537Z,16.90
2019-02-03T08:44:00.790Z,22.00
2019-02-03T08:46:29.978Z,13.43
2019-02-03T08:48:59.242Z,22.20
2019-02-03T08:51:28.493Z,18.70
2019-02-03T08:53:58.085Z,15.43
2019-02-03T08:56:27.261Z,14.27
2019-02-03T08:58:56.518Z,29.87
2019-02-03T09:01:25.680Z,27.43
2019-02-03T09:03:55.356Z,23.27
2019-02-03T09:06:24.549Z,19.37
2019-02-03T09:08:54.369Z,37.43
2019-02-03T09:11:23.722Z,21.50
2019-02-03T09:13:55.538Z,20.10
2019-02-03T09:16:23.933Z,20.57
2019-02-03T09:18:53.423Z,23.50
2019-02-03T09:21:22.675Z,26.83
2019-02-03T09:23:51.856Z,12.53
2019-02-03T09:26:21.155Z,26.37
2019-02-03T09:28:50.491Z,13.93
2019-02-03T09:31:19.813Z,12.40
2019-02-03T09:33:49.003Z,11.67
2019-02-03T09:36:18.190Z,10.80
2019-02-03T09:38:47.374Z,13.97
2019-02-03T09:41:16.672Z,11.50
2019-02-03T09:43:45.902Z,9.67
2019-02-03T09:46:15.129Z,9.40
2019-02-03T09:48:44.382Z,10.07
2019-02-03T09:51:14.150Z,9.97
2019-02-03T09:53:43.395Z,8.97
2019-02-03T09:56:12.672Z,9.60
2019-02-03T09:58:42.082Z,11.20
2019-02-03T10:01:11.419Z,9.37
2019-02-03T10:03:40.703Z,8.07
2019-02-03T10:06:10.188Z,9.17
2019-02-03T10:08:41.136Z,8.80
2019-02-03T10:11:12.015Z,8.17
2019-02-03T10:13:41.469Z,9.23
2019-02-03T10:16:10.829Z,8.77
2019-02-03T10:18:40.428Z,9.47
2019-02-03T10:21:09.757Z,9.80
2019-02-03T10:23:39.042Z,12.27
2019-02-03T10:26:08.498Z,13.77
2019-02-03T10:28:37.816Z,8.00
2019-02-03T10:31:06.994Z,9.20
2019-02-03T10:33:36.302Z,7.43
2019-02-03T10:36:06.009Z,9.97
2019-02-03T10:38:35.318Z,8.03
2019-02-03T10:41:04.708Z,7.63
2019-02-03T10:43:34.054Z,7.93
2019-02-03T10:46:04.281Z,10.37
2019-02-03T10:48:33.546Z,11.13
2019-02-03T10:51:02.945Z,8.07
2019-02-03T10:53:32.116Z,10.57
2019-02-03T10:56:01.319Z,7.37
2019-02-03T10:58:30.558Z,5.43
2019-02-03T11:00:59.857Z,6.53
2019-02-03T11:03:29.096Z,6.50
2019-02-03T11:05:59.522Z,5.40
2019-02-03T11:08:29.201Z,6.53
2019-02-03T11:10:58.483Z,6.60
2019-02-03T11:13:27.940Z,5.60
2019-02-03T11:15:58.007Z,6.10
2019-02-03T11:18:27.256Z,7.03
2019-02-03T11:20:56.477Z,7.50
2019-02-03T11:23:25.819Z,8.00
2019-02-03T11:25:55.092Z,8.80
2019-02-03T11:28:24.655Z,8.83
2019-02-03T11:30:53.948Z,8.80
2019-02-03T11:33:23.394Z,9.58
2019-02-03T11:35:52.679Z,7.93
2019-02-03T11:38:21.974Z,7.40
2019-02-03T11:40:51.346Z,8.53
2019-02-03T11:43:20.704Z,7.80
2019-02-03T11:45:49.983Z,7.77
2019-02-03T11:48:21.391Z,6.40
2019-02-03T11:50:51.766Z,7.80
2019-02-03T11:53:27.373Z,8.63
2019-02-03T11:55:56.966Z,8.27
2019-02-03T11:58:26.222Z,8.10
2019-02-03T12:00:56.612Z,9.07
2019-02-03T12:03:25.915Z,8.00
2019-02-03T12:05:55.176Z,9.57
2019-02-03T12:08:24.473Z,10.60
2019-02-03T12:10:53.671Z,7.63
2019-02-03T12:13:22.959Z,9.77
2019-02-03T12:15:52.542Z,9.63
2019-02-03T12:18:21.752Z,9.00
2019-02-03T12:20:50.955Z,13.40
2019-02-03T12:23:20.190Z,14.00
2019-02-03T12:25:50.346Z,12.97
2019-02-03T12:28:19.926Z,13.60
2019-02-03T12:30:49.133Z,13.40
2019-02-03T12:33:18.396Z,13.93
2019-02-03T12:35:47.707Z,16.57
2019-02-03T12:38:17.255Z,14.97
2019-02-03T12:40:46.513Z,15.37
2019-02-03T12:43:15.789Z,16.13
2019-02-03T12:45:45.055Z,17.10
2019-02-03T12:48:14.427Z,17.60
2019-02-03T12:50:43.731Z,16.20
2019-02-03T12:53:15.517Z,17.43
2019-02-03T12:55:45.204Z,17.60
2019-02-03T12:58:14.546Z,15.77
2019-02-03T13:00:43.831Z,16.63
2019-02-03T13:03:13.171Z,22.83
2019-02-03T13:05:42.993Z,19.87
2019-02-03T13:08:12.377Z,23.17
2019-02-03T13:10:41.747Z,22.33
2019-02-03T13:13:11.120Z,21.07
2019-02-03T13:15:48.877Z,19.70
2019-02-03T13:18:18.790Z,20.00
2019-02-03T13:20:48.139Z,24.23
2019-02-03T13:23:18.045Z,23.33
2019-02-03T13:25:48.108Z,20.30
2019-02-03T13:28:17.276Z,24.40
2019-02-03T13:30:50.718Z,23.13
2019-02-03T13:33:21.723Z,23.73
2019-02-03T13:35:51.040Z,24.60
2019-02-03T13:38:20.331Z,26.57
2019-02-03T13:40:49.758Z,26.93
2019-02-03T13:43:19.039Z,25.83
2019-02-03T13:45:48.525Z,26.53
2019-02-03T13:48:17.916Z,24.20
2019-02-03T13:50:47.219Z,27.83
2019-02-03T13:53:16.606Z,26.30
2019-02-03T13:55:45.975Z,28.83
2019-02-03T13:58:15.384Z,27.43
2019-02-03T14:00:46.017Z,23.13
2019-02-03T14:03:16.003Z,21.80
2019-02-03T14:05:45.646Z,24.53
2019-02-03T14:08:14.941Z,24.70
2019-02-03T14:10:45.592Z,27.10
2019-02-03T14:13:14.993Z,21.40
2019-02-03T14:15:44.512Z,24.03
2019-02-03T14:18:13.964Z,31.57
2019-02-03T14:20:43.433Z,25.23
2019-02-03T14:23:13.219Z,23.60
2019-02-03T14:25:42.865Z,27.20
2019-02-03T14:28:12.091Z,22.83
2019-02-03T14:30:44.453Z,26.50
2019-02-03T14:33:14.448Z,27.77
2019-02-03T14:35:45.583Z,23.30
2019-02-03T14:38:14.968Z,25.07
2019-02-03T14:40:44.304Z,23.57
2019-02-03T14:43:13.651Z,24.53
2019-02-03T14:45:43.424Z,24.80
2019-02-03T14:48:12.797Z,21.70
2019-02-03T14:50:42.055Z,23.10
2019-02-03T14:53:14.086Z,25.37
2019-02-03T14:55:45.133Z,23.27
2019-02-03T14:58:15.137Z,27.07
2019-02-03T15:00:51.121Z,22.67
2019-02-03T15:03:22.597Z,28.67
2019-02-03T15:05:51.900Z,26.90
2019-02-03T15:08:21.274Z,26.00
2019-02-03T15:10:50.837Z,26.63
2019-02-03T15:13:20.034Z,25.20
2019-02-03T15:15:49.611Z,24.97
2019-02-03T15:18:18.960Z,28.50
2019-02-03T15:20:48.276Z,27.33
2019-02-03T15:23:17.527Z,29.07
2019-02-03T15:25:48.925Z,29.90
2019-02-03T15:28:18.193Z,29.97
2019-02-03T15:30:48.683Z,31.00
2019-02-03T15:33:17.968Z,31.47
2019-02-03T15:35:47.294Z,33.53
2019-02-03T15:38:16.605Z,28.17
2019-02-03T15:40:46.406Z,28.90
2019-02-03T15:43:24.939Z,30.23
2019-02-03T15:45:46.700Z,34.80
2019-02-03T15:48:15.989Z,37.03
2019-02-03T15:50:45.300Z,35.80
2019-02-03T15:53:14.600Z,37.37
2019-02-03T15:55:43.855Z,32.60
2019-02-03T15:58:15.136Z,28.73
2019-02-03T16:00:54.132Z,29.20
2019-02-03T16:03:23.478Z,30.63
2019-02-03T16:05:53.220Z,30.83
2019-02-03T16:08:22.552Z,29.50
2019-02-03T16:10:51.970Z,27.10
2019-02-03T16:13:21.271Z,29.33
2019-02-03T16:15:50.587Z,28.77
2019-02-03T16:18:19.933Z,25.50
2019-02-03T16:20:49.262Z,26.73
2019-02-03T16:23:18.613Z,28.73
2019-02-03T16:25:47.978Z,30.67
2019-02-03T16:28:17.717Z,31.57
2019-02-03T16:30:47.106Z,33.77
2019-02-03T16:33:16.571Z,29.23
2019-02-03T16:35:45.880Z,31.90
2019-02-03T16:38:22.492Z,31.53
2019-02-03T16:40:46.146Z,30.90
2019-02-03T16:43:16.051Z,33.20
2019-02-03T16:45:45.637Z,36.40
2019-02-03T16:48:14.995Z,37.07
2019-02-03T16:50:44.638Z,37.37
2019-02-03T16:53:13.939Z,39.10
2019-02-03T16:55:43.306Z,35.03
2019-02-03T16:58:15.308Z,36.40
2019-02-03T17:00:45.302Z,32.17
2019-02-03T17:03:14.948Z,40.33
2019-02-03T17:05:44.403Z,35.03
2019-02-03T17:08:14.444Z,36.10
2019-02-03T17:10:44.274Z,37.77
2019-02-03T17:13:13.537Z,39.37
2019-02-03T17:15:47.163Z,34.43
2019-02-03T17:18:16.900Z,34.33
2019-02-03T17:21:00.880Z,33.67
2019-02-03T17:23:19.875Z,35.60
2019-02-03T17:25:59.594Z,32.47
2019-02-03T17:28:31.656Z,33.70
2019-02-03T17:31:01.156Z,28.47
2019-02-03T17:33:30.857Z,29.67
2019-02-03T17:36:00.464Z,31.23
2019-02-03T17:38:30.233Z,31.77
2019-02-03T17:40:59.629Z,33.57
2019-02-03T17:43:28.916Z,34.00
2019-02-03T17:45:58.262Z,35.97
2019-02-03T17:48:27.573Z,33.03
2019-02-03T17:50:56.896Z,29.90
2019-02-03T17:53:26.696Z,29.20
2019-02-03T17:55:55.973Z,30.93
2019-02-03T17:58:25.308Z,32.70
2019-02-03T18:00:58.078Z,31.17
2019-02-03T18:03:27.460Z,33.07
2019-02-03T18:05:56.801Z,35.57
2019-02-03T18:08:26.166Z,35.83
2019-02-03T18:10:55.394Z,34.33
2019-02-03T18:13:24.793Z,31.63
2019-02-03T18:15:54.174Z,32.57
2019-02-03T18:18:24.074Z,34.67
2019-02-03T18:20:53.831Z,38.57
2019-02-03T18:23:23.172Z,33.10
2019-02-03T18:25:52.451Z,40.10
2019-02-03T18:28:21.795Z,34.10
2019-02-03T18:30:51.277Z,33.67
2019-02-03T18:33:20.659Z,32.93
2019-02-03T18:35:50.494Z,33.60
2019-02-03T18:38:20.393Z,37.87
2019-02-03T18:40:49.710Z,33.60
2019-02-03T18:43:20.417Z,37.10
2019-02-03T18:45:49.695Z,38.80
2019-02-03T18:48:19.963Z,32.20
2019-02-03T18:50:49.283Z,36.50
2019-02-03T18:53:18.666Z,40.23
2019-02-03T18:55:48.192Z,34.80
2019-02-03T18:58:17.494Z,35.63
2019-02-03T19:00:48.612Z,33.80
2019-02-03T19:03:18.167Z,36.87
2019-02-03T19:05:47.803Z,35.10
2019-02-03T19:08:17.523Z,38.23
2019-02-03T19:10:46.843Z,33.17
2019-02-03T19:13:16.054Z,36.90
2019-02-03T19:15:45.832Z,32.00
2019-02-03T19:18:15.106Z,36.83
2019-02-03T19:20:44.431Z,36.03
2019-02-03T19:23:14.232Z,42.53
2019-02-03T19:25:44.055Z,38.93
2019-02-03T19:28:13.589Z,34.27
2019-02-03T19:30:42.754Z,37.50
2019-02-03T19:33:12.441Z,32.73
2019-02-03T19:35:41.764Z,30.87
2019-02-03T19:38:11.584Z,28.33
2019-02-03T19:40:41.177Z,31.20
2019-02-03T19:43:10.714Z,32.00
2019-02-03T19:45:40.019Z,31.90
2019-02-03T19:48:09.288Z,35.00
2019-02-03T19:50:39.990Z,35.03
2019-02-03T19:53:10.479Z,33.60
2019-02-03T19:55:40.013Z,34.97
2019-02-03T19:58:10.112Z,30.43
2019-02-03T20:00:41.827Z,32.07
2019-02-03T20:03:11.828Z,29.95
2019-02-03T20:05:42.932Z,30.30
2019-02-03T20:08:12.834Z,37.10
2019-02-03T20:10:42.719Z,33.40
2019-02-03T20:13:12.139Z,32.67
2019-02-03T20:15:41.517Z,34.97
2019-02-03T20:18:10.767Z,35.30
2019-02-03T20:20:40.112Z,34.43
2019-02-03T20:23:09.851Z,34.00
2019-02-03T20:25:41.043Z,33.67
2019-02-03T20:28:10.437Z,35.43
2019-02-03T20:30:39.925Z,34.50
2019-02-03T20:33:09.272Z,36.90
2019-02-03T20:35:38.545Z,36.97
2019-02-03T20:38:08.680Z,35.83
2019-02-03T20:40:40.705Z,37.77
2019-02-03T20:43:10.395Z,33.07
2019-02-03T20:45:48.914Z,41.83
2019-02-03T20:48:11.302Z,35.80
2019-02-03T20:50:41.196Z,36.80
2019-02-03T20:53:10.732Z,38.20
2019-02-03T20:55:40.404Z,38.23
2019-02-03T20:58:09.686Z,35.20
2019-02-03T21:00:39.455Z,37.80
2019-02-03T21:03:08.914Z,37.70
2019-02-03T21:05:38.167Z,37.50
2019-02-03T21:08:07.769Z,39.67
2019-02-03T21:10:37.353Z,39.73
2019-02-03T21:13:11.099Z,42.00
2019-02-03T21:15:38.451Z,42.63
2019-02-03T21:18:08.436Z,38.37
2019-02-03T21:20:37.746Z,45.08
2019-02-03T21:23:07.102Z,39.07
2019-02-03T21:25:36.382Z,38.33
2019-02-03T21:28:07.439Z,39.43
2019-02-03T21:30:39.065Z,37.97
2019-02-03T21:33:08.455Z,34.17
2019-02-03T21:35:38.138Z,34.37
2019-02-03T21:38:09.155Z,39.17
2019-02-03T21:40:38.505Z,38.73
2019-02-03T21:43:07.825Z,39.17
2019-02-03T21:45:44.990Z,41.73
2019-02-03T21:48:10.036Z,42.47
2019-02-03T21:50:39.381Z,41.80
2019-02-03T21:53:09.158Z,37.27
2019-02-03T21:55:38.581Z,36.37
2019-02-03T21:58:09.512Z,35.57
2019-02-03T22:00:38.932Z,38.10
2019-02-03T22:03:08.104Z,35.77
2019-02-03T22:05:37.320Z,34.93
2019-02-03T22:08:07.200Z,34.53
2019-02-03T22:10:38.516Z,36.07
2019-02-03T22:13:07.879Z,35.03
2019-02-03T22:15:37.951Z,32.57
2019-02-03T22:18:08.513Z,35.60
2019-02-03T22:20:37.727Z,37.40
2019-02-03T22:23:06.909Z,33.33
2019-02-03T22:25:36.778Z,31.93
2019-02-03T22:28:05.982Z,36.17
2019-02-03T22:30:38.242Z,36.63
